createdAt,value
2018-12-16T00:03:09.005Z,6.20
2018-12-16T00:13:13.767Z,6.53
2018-12-16T00:23:18.631Z,6.03
2018-12-16T00:33:23.180Z,8.17
2018-12-16T00:43:27.861Z,7.57
2018-12-16T00:53:32.586Z,10.97
2018-12-16T01:03:37.447Z,8.87
2018-12-16T01:13:42.244Z,7.67
2018-12-16T01:23:47.482Z,10.13
2018-12-16T01:33:52.301Z,5.53
2018-12-16T01:43:56.930Z,6.77
2018-12-16T01:54:01.539Z,7.63
2018-12-16T02:04:06.177Z,6.67
2018-12-16T02:14:10.811Z,7.67
2018-12-16T02:24:16.098Z,7.40
2018-12-16T02:34:20.861Z,7.57
2018-12-16T02:44:25.516Z,5.50
2018-12-16T02:54:30.128Z,5.40
2018-12-16T03:04:34.736Z,5.63
2018-12-16T03:14:39.488Z,5.40
2018-12-16T03:24:44.136Z,5.87
2018-12-16T03:34:48.843Z,5.30
2018-12-16T03:44:53.530Z,4.93
2018-12-16T03:54:58.294Z,5.53
2018-12-16T04:05:03.114Z,6.10
2018-12-16T04:15:08.051Z,4.73
2018-12-16T04:25:12.812Z,4.63
2018-12-16T04:35:17.539Z,7.33
2018-12-16T04:45:23.078Z,8.50
2018-12-16T04:55:27.830Z,8.70
2018-12-16T05:05:32.647Z,11.17
2018-12-16T05:15:37.358Z,12.23
2018-12-16T05:25:42.003Z,7.63
2018-12-16T05:35:46.687Z,7.70
2018-12-16T05:45:51.303Z,7.17
2018-12-16T05:55:55.917Z,7.80
2018-12-16T06:06:00.597Z,8.13
2018-12-16T06:16:05.222Z,7.83
2018-12-16T06:26:10.027Z,7.17
2018-12-16T06:36:14.670Z,6.87
2018-12-16T06:46:19.204Z,7.20
2018-12-16T06:56:23.936Z,7.90
2018-12-16T07:06:28.561Z,6.73
2018-12-16T07:16:33.115Z,6.70
2018-12-16T07:26:38.001Z,7.40
2018-12-16T07:36:42.611Z,7.33
2018-12-16T07:46:47.298Z,7.20
2018-12-16T07:56:52.121Z,6.70
2018-12-16T08:06:56.971Z,6.80
2018-12-16T08:17:01.557Z,7.00
2018-12-16T08:27:06.314Z,7.23
2018-12-16T08:37:10.927Z,8.10
2018-12-16T08:47:15.821Z,8.03
2018-12-16T08:57:20.693Z,10.97
2018-12-16T09:07:26.572Z,22.20
2018-12-16T09:17:31.366Z,23.53
2018-12-16T09:27:36.132Z,23.27
2018-12-16T09:37:40.744Z,20.47
2018-12-16T09:47:45.829Z,20.60
2018-12-16T09:57:50.485Z,20.53
2018-12-16T10:07:55.974Z,18.97
2018-12-16T10:18:01.308Z,17.37
2018-12-16T10:28:06.114Z,20.53
2018-12-16T10:38:10.691Z,16.37
2018-12-16T10:48:15.284Z,16.07
2018-12-16T10:58:19.926Z,17.70
2018-12-16T11:08:24.995Z,32.53
2018-12-16T11:18:29.707Z,49.23
2018-12-16T11:28:36.108Z,54.03
2018-12-16T11:38:40.918Z,53.50
2018-12-16T11:48:45.587Z,55.70
2018-12-16T11:58:52.215Z,49.63
2018-12-16T12:08:58.268Z,50.17
2018-12-16T12:19:04.654Z,46.47
2018-12-16T12:29:09.730Z,47.83
2018-12-16T12:39:17.237Z,46.33
2018-12-16T12:49:22.870Z,44.40
2018-12-16T12:59:28.500Z,41.27
2018-12-16T13:09:34.002Z,40.73
2018-12-16T13:19:41.205Z,34.00
2018-12-16T13:29:46.581Z,34.77
2018-12-16T13:39:55.118Z,31.30
2018-12-16T13:50:00.885Z,30.43
2018-12-16T14:00:07.138Z,28.87
2018-12-16T14:10:12.124Z,30.03
2018-12-16T14:20:16.799Z,26.97
2018-12-16T14:30:21.552Z,28.97
2018-12-16T14:40:26.702Z,24.53
2018-12-16T14:50:32.213Z,20.13
2018-12-16T15:00:36.773Z,24.50
2018-12-16T15:10:41.513Z,20.90
2018-12-16T15:20:46.920Z,20.13
2018-12-16T15:30:51.642Z,21.37
2018-12-16T15:40:57.041Z,25.13
2018-12-16T15:51:01.845Z,24.40
2018-12-16T16:01:06.457Z,18.80
2018-12-16T16:11:11.162Z,23.47
2018-12-16T16:21:15.813Z,26.13
2018-12-16T16:31:20.407Z,19.37
2018-12-16T16:41:25.479Z,18.27
2018-12-16T16:51:30.362Z,17.07
2018-12-16T17:01:35.672Z,17.03
2018-12-16T17:11:40.918Z,21.13
2018-12-16T17:21:47.095Z,14.90
2018-12-16T17:31:52.443Z,16.23
2018-12-16T17:41:58.111Z,15.40
2018-12-16T17:52:04.478Z,18.87
2018-12-16T18:02:09.399Z,18.07
2018-12-16T18:12:14.643Z,13.03
2018-12-16T18:22:20.023Z,14.47
